EST,Max TemperatureF,Mean TemperatureF,Min TemperatureF,Max Dew PointF,MeanDew PointF,Min DewpointF,Max Humidity, Mean Humidity, Min Humidity, Max Sea Level PressureIn, Mean Sea Level PressureIn, Min Sea Level PressureIn, Max VisibilityMiles, Mean VisibilityMiles, Min VisibilityMiles, Max Wind SpeedMPH, Mean Wind SpeedMPH, Max Gust SpeedMPH,PrecipitationIn, CloudCover, Events, WindDirDegrees
2013-1-1,33,24,16,30,26,10,93,85,64,30.17,30.06,30.02,10,4,1,9,6,,0.04,7,Snow,279
2013-1-2,25,13,1,15,7,-1,92,80,53,30.30,30.20,30.12,10,6,1,6,0,,0.00,1,,258
2013-1-3,30,16,1,20,11,-3,91,72,53,30.32,30.27,30.21,10,8,2,10,3,18,0.00,3,,262
2013-1-4,33,30,26,22,20,17,75,68,61,30.35,30.30,30.25,10,10,8,17,9,23,0.00,3,,257
2013-1-5,37,26,15,26,21,10,88,69,55,30.41,30.31,30.19,10,9,5,8,5,,0.00,3,,219
2013-1-6,37,32,27,32,27,21,93,78,70,30.33,30.13,30.01,10,7,2,13,6,24,0.02,8,Snow,257
2013-1-7,36,32,21,25,23,18,88,76,59,30.51,30.40,30.29,9,6,2,8,4,,0.00,5,,214
2013-1-8,46,32,18,32,24,15,89,76,56,30.36,30.31,30.27,10,8,3,9,3,,0.00,0,,191
2013-1-9,50,38,27,41,33,24,89,75,61,30.53,30.35,30.24,10,10,4,16,6,22,0.05,3,Rain,242
2013-1-10,43,33,24,31,28,22,92,77,60,30.59,30.46,30.19,10,9,5,10,2,,0.00,2,,115
2013-1-11,60,50,41,53,43,31,100,85,63,30.17,30.00,29.92,10,6,0,18,7,26,0.33,3,Fog-Rain,183
2013-1-12,64,52,41,59,53,39,100,91,70,30.07,29.99,29.88,10,5,0,12,5,,0.05,5,Fog-Rain,170
2013-1-13,64,52,41,59,50,37,93,85,73,30.08,29.91,29.80,10,8,2,23,12,32,0.28,7,Rain,241
2013-1-14,39,34,27,37,25,21,93,78,72,30.43,30.30,30.09,10,9,6,12,8,20,0.00,5,,334
2013-1-15,32,28,25,24,22,20,85,76,69,30.41,30.30,30.10,10,8,6,12,7,,0.00,2,,48
2013-1-16,35,32,30,28,26,24,86,79,72,30.09,30.03,29.97,10,7,4,10,4,,0.00,6,Snow,260
2013-1-17,37,32,28,28,25,19,80,74,65,30.34,30.19,30.10,10,8,6,15,5,22,0.00,4,,282
2013-1-18,36,26,16,21,15,10,81,61,50,30.55,30.43,30.25,10,10,10,14,9,22,0.00,0,,229
2013-1-19,53,44,35,26,22,19,57,42,27,30.24,30.08,29.89,10,10,10,21,14,32,0.00,0,,223
2013-1-20,46,35,24,31,16,11,62,50,37,30.21,30.10,29.88,10,10,10,18,14,32,0.00,2,,297
2013-1-21,26,18,10,16,10,-3,80,62,51,30.22,30.08,30.01,10,7,1,20,10,32,0.00,7,Snow,286
2013-1-22,16,11,6,0,-3,-5,64,54,41,30.38,30.31,30.18,10,10,10,15,10,24,0.00,3,,286
2013-1-23,21,14,7,13,8,-1,84,70,40,30.37,30.20,30.07,10,6,2,12,4,17,0.00,7,Snow,250
2013-1-24,21,16,12,13,9,5,86,73,55,30.59,30.36,30.07,10,8,2,20,6,24,0.00,4,Snow,323
2013-1-25,23,19,15,19,12,5,86,74,57,30.50,30.18,30.02,10,5,0,14,6,,0.14,7,Fog-Snow,146
2013-1-26,28,22,14,21,18,8,84,73,62,30.49,30.29,30.12,10,7,2,13,8,,0.00,8,Snow,297
2013-1-27,35,18,1,28,13,-3,87,71,54,30.53,30.43,30.27,10,8,4,9,3,,0.09,2,,137
2013-1-28,51,42,32,50,41,29,97,89,76,30.25,30.10,30.03,10,5,2,15,9,23,0.41,8,Rain,211
2013-1-29,68,59,50,54,51,48,96,79,54,30.07,29.96,29.69,10,8,2,16,8,26,0.02,5,Rain,209
2013-1-30,64,50,35,56,48,28,90,77,63,29.64,29.42,29.26,10,8,1,26,17,45,0.67,6,Rain,219
2013-1-31,35,28,21,27,18,11,88,74,56,29.94,29.81,29.46,10,5,1,29,17,41,0.01,8,Snow,282